createdAt,value
2023-04-03T00:01:47.427Z,-0.3
2023-04-03T00:04:35.745Z,-0.3
2023-04-03T00:07:23.648Z,-0.3
2023-04-03T00:10:11.458Z,-0.4
2023-04-03T00:12:59.288Z,-0.4
2023-04-03T00:15:47.132Z,-0.4
2023-04-03T00:18:34.967Z,-0.4
2023-04-03T00:21:22.900Z,-0.5
2023-04-03T00:24:10.582Z,-0.5
2023-04-03T00:26:58.458Z,-0.5
2023-04-03T00:29:46.221Z,-0.6
2023-04-03T00:32:34.082Z,-0.6
2023-04-03T00:35:22.033Z,-0.6
2023-04-03T00:38:10.009Z,-0.7
2023-04-03T00:40:57.748Z,-0.7
2023-04-03T00:43:45.651Z,-0.7
2023-04-03T00:46:33.652Z,-0.8
2023-04-03T00:49:21.501Z,-0.8
2023-04-03T00:52:09.232Z,-0.8
2023-04-03T00:54:57.120Z,-0.7
2023-04-03T00:57:44.849Z,-0.7
2023-04-03T01:00:32.778Z,-0.8
2023-04-03T01:03:20.595Z,-0.8
2023-04-03T01:06:08.302Z,-0.7
2023-04-03T01:08:56.140Z,-0.8
2023-04-03T01:11:44.044Z,-0.7
2023-04-03T01:14:31.860Z,-0.7
2023-04-03T01:17:19.817Z,-0.7
2023-04-03T01:20:07.575Z,-0.7
2023-04-03T01:22:55.328Z,-0.8
2023-04-03T01:25:43.104Z,-0.8
2023-04-03T01:28:30.995Z,-0.8
2023-04-03T01:31:18.843Z,-0.9
2023-04-03T01:34:06.910Z,-0.9
2023-04-03T01:36:54.786Z,-0.8
2023-04-03T01:39:42.725Z,-0.7
2023-04-03T01:42:30.409Z,-0.6
2023-04-03T01:45:18.208Z,-0.4
2023-04-03T01:48:06.032Z,-0.2
2023-04-03T01:50:53.829Z,-0.1
2023-04-03T01:53:41.638Z,0
2023-04-03T01:56:29.481Z,0.2
2023-04-03T01:59:17.207Z,0.3
2023-04-03T02:02:05.089Z,0.5
2023-04-03T02:04:53.077Z,0.6
2023-04-03T02:07:41.115Z,0.8
2023-04-03T02:10:28.959Z,0.8
2023-04-03T02:13:16.885Z,1
2023-04-03T02:16:04.735Z,1
2023-04-03T02:18:52.651Z,1.1
2023-04-03T02:21:40.449Z,1.1
2023-04-03T02:24:28.452Z,1.1
2023-04-03T02:27:16.184Z,1.1
2023-04-03T02:30:04.054Z,1.1
2023-04-03T02:32:52.057Z,1.1
2023-04-03T02:35:39.958Z,1.1
2023-04-03T02:38:27.800Z,1.1
2023-04-03T02:41:15.609Z,1.1
2023-04-03T02:44:03.423Z,1
2023-04-03T02:46:51.380Z,1
2023-04-03T02:49:39.152Z,1
2023-04-03T02:52:26.939Z,1
2023-04-03T02:55:14.824Z,1
2023-04-03T02:58:02.775Z,1
2023-04-03T03:00:50.685Z,0.9
2023-04-03T03:03:38.472Z,0.8
2023-04-03T03:06:26.200Z,0.8
2023-04-03T03:09:14.067Z,0.8
2023-04-03T03:12:01.797Z,0.8
2023-04-03T03:14:49.776Z,0.8
2023-04-03T03:17:37.579Z,0.8
2023-04-03T03:20:25.368Z,0.8
2023-04-03T03:23:13.048Z,0.8
2023-04-03T03:26:00.988Z,0.8
2023-04-03T03:28:48.889Z,0.8
2023-04-03T03:31:36.860Z,0.8
2023-04-03T03:34:24.904Z,0.8
2023-04-03T03:37:12.578Z,0.8
2023-04-03T03:40:00.308Z,0.8
2023-04-03T03:42:48.149Z,0.7
2023-04-03T03:45:36.042Z,0.7
2023-04-03T03:48:24.539Z,0.6
2023-04-03T03:51:13.590Z,0.6
2023-04-03T03:54:01.376Z,0.6
2023-04-03T03:56:49.165Z,0.6
2023-04-03T03:59:37.065Z,0.6
2023-04-03T04:02:24.944Z,0.6
2023-04-03T04:05:13.045Z,0.6
2023-04-03T04:08:00.964Z,0.6
2023-04-03T04:10:48.850Z,0.6
2023-04-03T04:13:36.604Z,0.5
2023-04-03T04:16:24.527Z,0.5
2023-04-03T04:19:12.451Z,0.5
2023-04-03T04:22:00.468Z,0.5
2023-04-03T04:24:48.320Z,0.5
2023-04-03T04:27:36.210Z,0.5
2023-04-03T04:30:25.288Z,0.5
2023-04-03T04:33:13.205Z,0.5
2023-04-03T04:36:01.392Z,0.6
2023-04-03T04:38:49.512Z,0.5
2023-04-03T04:41:37.537Z,0.6
2023-04-03T04:44:25.426Z,0.6
2023-04-03T04:47:13.355Z,0.6
2023-04-03T04:50:01.346Z,0.6
2023-04-03T04:52:49.092Z,0.6
2023-04-03T04:55:37.192Z,0.6
2023-04-03T04:58:25.488Z,0.6
2023-04-03T05:01:13.353Z,0.6
2023-04-03T05:04:01.172Z,0.6
2023-04-03T05:06:49.113Z,0.6
2023-04-03T05:09:36.999Z,0.6
2023-04-03T05:12:25.137Z,0.5
2023-04-03T05:15:13.054Z,0.5
2023-04-03T05:18:01.134Z,0.5
2023-04-03T05:20:49.062Z,0.5
2023-04-03T05:23:37.103Z,0.5
2023-04-03T05:26:24.874Z,0.5
2023-04-03T05:29:12.965Z,0.5
2023-04-03T05:32:00.870Z,0.5
2023-04-03T05:34:49.093Z,0.5
2023-04-03T05:37:37.243Z,0.5
2023-04-03T05:40:25.384Z,0.5
2023-04-03T05:43:13.161Z,0.5
2023-04-03T05:46:01.315Z,0.6
2023-04-03T05:48:49.264Z,0.6
2023-04-03T05:51:37.277Z,0.6
2023-04-03T05:54:25.116Z,0.6
2023-04-03T05:57:13.383Z,0.6
2023-04-03T06:00:01.344Z,0.6
2023-04-03T06:02:49.618Z,0.8
2023-04-03T06:05:38.066Z,0.8
2023-04-03T06:08:26.380Z,1.3
2023-04-03T06:11:14.075Z,2.4
2023-04-03T06:14:02.000Z,3.7
2023-04-03T06:16:49.891Z,5
2023-04-03T06:19:37.798Z,6.2
2023-04-03T06:22:25.660Z,7.2
2023-04-03T06:25:13.440Z,8
2023-04-03T06:28:01.275Z,8.4
2023-04-03T06:30:49.360Z,8.8
2023-04-03T06:33:37.295Z,8.9
2023-04-03T06:36:25.411Z,9.2
2023-04-03T06:39:13.272Z,10
2023-04-03T06:42:02.710Z,10.7
2023-04-03T06:44:50.533Z,11.1
2023-04-03T06:47:38.483Z,11.4
2023-04-03T06:50:26.510Z,11.7
2023-04-03T06:53:14.551Z,11.9
2023-04-03T06:56:02.375Z,12
2023-04-03T06:58:51.709Z,12
2023-04-03T07:01:39.859Z,12.2
2023-04-03T07:04:27.908Z,12.2
2023-04-03T07:07:15.713Z,12.2
2023-04-03T07:10:03.694Z,12.4
2023-04-03T07:12:51.584Z,12.5
2023-04-03T07:15:39.596Z,12.5
2023-04-03T07:18:28.140Z,12.5
2023-04-03T07:21:15.855Z,13
2023-04-03T07:24:03.673Z,13.2
2023-04-03T07:26:51.688Z,13.1
2023-04-03T07:29:39.520Z,13.1
2023-04-03T07:32:27.481Z,13.3
2023-04-03T07:35:15.285Z,13.4
2023-04-03T07:38:03.378Z,13.6
2023-04-03T07:40:51.214Z,13.7
2023-04-03T07:43:39.334Z,13.5
2023-04-03T07:46:27.359Z,13.8
2023-04-03T07:49:15.387Z,14.4
2023-04-03T07:52:03.112Z,14.9
2023-04-03T07:54:50.954Z,15.4
2023-04-03T07:57:38.883Z,15.8
2023-04-03T08:00:27.001Z,16
2023-04-03T08:03:15.131Z,16.3
2023-04-03T08:06:03.367Z,16
2023-04-03T08:08:51.100Z,15.6
2023-04-03T08:11:38.974Z,15.9
2023-04-03T08:14:26.807Z,16.8
2023-04-03T08:17:14.835Z,17.5
2023-04-03T08:20:02.648Z,17.6
2023-04-03T08:22:50.510Z,17.4
2023-04-03T08:25:38.382Z,17
2023-04-03T08:28:26.955Z,16.7
2023-04-03T08:31:14.737Z,16.8
2023-04-03T08:34:02.747Z,16.9
2023-04-03T08:36:50.556Z,16.6
2023-04-03T08:39:38.289Z,16.8
2023-04-03T08:42:25.940Z,17.7
2023-04-03T08:45:13.722Z,18.2
2023-04-03T08:48:01.745Z,18
2023-04-03T08:50:50.056Z,18
2023-04-03T08:53:37.923Z,17.8
2023-04-03T08:56:25.806Z,17.8
2023-04-03T08:59:13.590Z,18
2023-04-03T09:02:01.433Z,18
2023-04-03T09:04:49.360Z,18.1
2023-04-03T09:07:37.473Z,18.1
2023-04-03T09:10:25.595Z,17.8
2023-04-03T09:13:13.274Z,17.4
2023-04-03T09:16:07.799Z,17.6
2023-04-03T09:18:55.751Z,17.6
2023-04-03T09:21:43.588Z,17.6
2023-04-03T09:24:31.751Z,17.6
2023-04-03T09:27:19.763Z,17.2
2023-04-03T09:30:07.909Z,17.4
2023-04-03T09:32:55.709Z,17.5
2023-04-03T09:35:50.135Z,17.5
2023-04-03T09:38:37.965Z,17.4
2023-04-03T09:41:26.084Z,17.1
2023-04-03T09:44:13.938Z,17
2023-04-03T09:47:01.809Z,17.2
2023-04-03T09:49:49.607Z,17.4
2023-04-03T09:52:39.282Z,17.8
2023-04-03T09:55:28.097Z,18
2023-04-03T09:58:16.412Z,17.8
2023-04-03T10:01:04.765Z,17.5
2023-04-03T10:03:52.772Z,17.4
2023-04-03T10:06:40.454Z,17.5
2023-04-03T10:09:28.183Z,17.5
2023-04-03T10:12:15.969Z,17.9
2023-04-03T10:15:04.165Z,18.4
2023-04-03T10:17:52.098Z,18.7
2023-04-03T10:20:40.259Z,18.6
2023-04-03T10:23:28.631Z,18.1
2023-04-03T10:26:16.368Z,17.8
2023-04-03T10:29:04.050Z,17.6
2023-04-03T10:31:52.269Z,17.4
2023-04-03T10:34:40.232Z,17.2
2023-04-03T10:37:28.812Z,17.2
2023-04-03T10:40:16.492Z,16.4
2023-04-03T10:43:04.396Z,16
2023-04-03T10:45:52.150Z,15.8
2023-04-03T10:48:40.386Z,15.6
2023-04-03T10:51:28.354Z,15.8
2023-04-03T10:54:16.245Z,16.4
2023-04-03T10:57:11.477Z,16.2
2023-04-03T11:00:01.648Z,15.9
2023-04-03T11:02:49.490Z,16.2
2023-04-03T11:05:37.994Z,16.4
2023-04-03T11:08:26.402Z,16.6
2023-04-03T11:11:14.312Z,17
2023-04-03T11:14:02.103Z,17.4
2023-04-03T11:16:54.231Z,17.4
2023-04-03T11:19:42.525Z,17.2
2023-04-03T11:22:30.461Z,16.8
2023-04-03T11:25:18.276Z,16.7
2023-04-03T11:28:05.976Z,16.6
2023-04-03T11:30:55.284Z,16.4
2023-04-03T11:33:45.851Z,16.5
2023-04-03T11:36:43.730Z,16.8
2023-04-03T11:39:31.985Z,16.8
2023-04-03T11:42:25.784Z,16.7
2023-04-03T11:45:13.717Z,16.7
2023-04-03T11:48:10.110Z,16.7
2023-04-03T11:51:10.790Z,17
2023-04-03T11:53:58.368Z,17.1
2023-04-03T11:56:46.428Z,17
2023-04-03T11:59:34.379Z,16.8
2023-04-03T12:02:22.295Z,16.6
2023-04-03T12:05:10.367Z,16.4
2023-04-03T12:07:58.001Z,16
2023-04-03T12:10:59.251Z,15.9
2023-04-03T12:13:47.366Z,16
2023-04-03T12:16:35.203Z,16
2023-04-03T12:19:26.686Z,15.8
2023-04-03T12:22:30.090Z,15.8
2023-04-03T12:25:17.868Z,15.7
2023-04-03T12:28:05.476Z,15.4
2023-04-03T12:30:53.641Z,15.1
2023-04-03T12:33:42.604Z,14.9
2023-04-03T12:36:30.698Z,14.6
2023-04-03T12:39:18.527Z,14.4
2023-04-03T12:42:06.266Z,14.2
2023-04-03T12:44:53.843Z,14
2023-04-03T12:47:42.224Z,13.8
2023-04-03T12:50:30.180Z,13.6
2023-04-03T12:53:18.169Z,13.5
2023-04-03T12:56:06.145Z,13.5
2023-04-03T12:58:53.840Z,13.3
2023-04-03T13:01:41.628Z,13.1
2023-04-03T13:04:29.987Z,13.1
2023-04-03T13:07:18.012Z,13.1
2023-04-03T13:10:05.785Z,13.5
2023-04-03T13:12:53.686Z,14
2023-04-03T13:15:41.458Z,14.4
2023-04-03T13:18:29.139Z,14.7
2023-04-03T13:21:17.150Z,15
2023-04-03T13:24:14.519Z,15.1
2023-04-03T13:27:03.696Z,15.2
2023-04-03T13:29:58.852Z,15
2023-04-03T13:32:46.672Z,14.5
2023-04-03T13:35:46.594Z,14.2
2023-04-03T13:38:34.865Z,14.1
2023-04-03T13:41:22.840Z,14.1
2023-04-03T13:44:12.771Z,14
2023-04-03T13:47:00.570Z,14.1
2023-04-03T13:49:48.240Z,14.4
2023-04-03T13:52:36.938Z,14.6
2023-04-03T13:55:26.160Z,15
2023-04-03T13:58:14.752Z,15.4
2023-04-03T14:01:02.570Z,15.3
2023-04-03T14:03:50.460Z,15.2
2023-04-03T14:06:38.273Z,15.2
2023-04-03T14:09:26.088Z,15.1
2023-04-03T14:12:20.985Z,15
2023-04-03T14:15:19.339Z,15
2023-04-03T14:18:08.017Z,14.9
2023-04-03T14:20:55.966Z,14.8
2023-04-03T14:23:43.709Z,14.6
2023-04-03T14:26:31.580Z,14.5
2023-04-03T14:29:19.349Z,14.6
2023-04-03T14:32:14.573Z,14.6
2023-04-03T14:35:03.015Z,14.7
2023-04-03T14:37:50.701Z,14.7
2023-04-03T14:40:38.728Z,14.8
2023-04-03T14:43:26.942Z,14.7
2023-04-03T14:46:14.863Z,14.6
2023-04-03T14:49:02.891Z,14.6
2023-04-03T14:51:50.721Z,14.6
2023-04-03T14:54:38.477Z,14.8
2023-04-03T14:57:26.510Z,15
2023-04-03T15:00:14.651Z,15.1
2023-04-03T15:03:02.997Z,14.9
2023-04-03T15:05:51.092Z,14.5
2023-04-03T15:08:38.928Z,14.3
2023-04-03T15:11:26.817Z,14.1
2023-04-03T15:14:16.748Z,13.9
2023-04-03T15:17:24.236Z,13.8
2023-04-03T15:20:12.050Z,13.6
2023-04-03T15:22:59.912Z,13.4
2023-04-03T15:25:47.610Z,13.2
2023-04-03T15:28:35.273Z,13.1
2023-04-03T15:31:23.204Z,12.8
2023-04-03T15:34:11.007Z,12.5
2023-04-03T15:37:03.046Z,12.4
2023-04-03T15:39:50.857Z,12.4
2023-04-03T15:42:38.662Z,12.5
2023-04-03T15:45:26.421Z,12.7
2023-04-03T15:48:14.206Z,12.7
2023-04-03T15:51:02.042Z,12.8
2023-04-03T15:53:49.794Z,13.1
2023-04-03T15:56:37.622Z,13
2023-04-03T15:59:25.388Z,12.8
2023-04-03T16:02:13.142Z,12.7
2023-04-03T16:05:00.908Z,13.1
2023-04-03T16:07:48.747Z,13.5
2023-04-03T16:10:36.801Z,13.7
2023-04-03T16:13:25.152Z,13.4
2023-04-03T16:16:12.972Z,13.3
2023-04-03T16:19:00.743Z,13.3
2023-04-03T16:21:48.726Z,13.5
2023-04-03T16:24:36.410Z,13.5
2023-04-03T16:27:24.371Z,13.1
2023-04-03T16:30:12.178Z,12.9
2023-04-03T16:32:59.987Z,12.8
2023-04-03T16:35:47.897Z,12.8
2023-04-03T16:38:35.642Z,12.7
2023-04-03T16:41:23.313Z,12.3
2023-04-03T16:44:11.179Z,12.1
2023-04-03T16:46:58.915Z,12.1
2023-04-03T16:49:46.800Z,11.9
2023-04-03T16:52:34.536Z,11.7
2023-04-03T16:55:22.378Z,11.7
2023-04-03T16:58:09.985Z,11.5
2023-04-03T17:00:57.925Z,11.1
2023-04-03T17:03:45.803Z,10.5
2023-04-03T17:06:33.768Z,10
2023-04-03T17:09:21.535Z,9.4
2023-04-03T17:12:09.249Z,9.1
2023-04-03T17:14:56.977Z,8.9
2023-04-03T17:17:44.919Z,8.7
2023-04-03T17:20:32.835Z,8.5
2023-04-03T17:23:20.679Z,8.3
2023-04-03T17:26:09.070Z,8.1
2023-04-03T17:28:56.855Z,7.8
2023-04-03T17:31:44.801Z,7.7
2023-04-03T17:34:32.889Z,7.5
2023-04-03T17:37:20.661Z,7.5
2023-04-03T17:40:08.499Z,7.4
2023-04-03T17:42:56.286Z,7.3
2023-04-03T17:45:44.222Z,7.2
2023-04-03T17:48:32.006Z,7.1
2023-04-03T17:51:19.761Z,7
2023-04-03T17:54:07.567Z,6.9
2023-04-03T17:56:55.297Z,6.8
2023-04-03T17:59:44.582Z,6.7
2023-04-03T18:02:32.373Z,6.5
2023-04-03T18:05:20.236Z,6.4
2023-04-03T18:08:08.101Z,6.4
2023-04-03T18:10:55.904Z,6.3
2023-04-03T18:13:45.021Z,6.2
2023-04-03T18:16:32.914Z,6.2
2023-04-03T18:19:35.178Z,6.1
2023-04-03T18:22:22.965Z,6
2023-04-03T18:25:10.677Z,5.9
2023-04-03T18:27:58.376Z,5.9
2023-04-03T18:30:46.102Z,5.8
2023-04-03T18:33:33.936Z,5.7
2023-04-03T18:36:21.889Z,5.7
2023-04-03T18:39:09.709Z,5.6
2023-04-03T18:41:57.595Z,5.5
2023-04-03T18:44:45.387Z,5.5
2023-04-03T18:47:33.326Z,5.5
2023-04-03T18:50:21.353Z,5.4
2023-04-03T18:53:09.191Z,5.3
2023-04-03T18:55:56.871Z,5.3
2023-04-03T18:58:44.768Z,5.3
2023-04-03T19:01:32.720Z,5.3
2023-04-03T19:04:20.631Z,5.2
2023-04-03T19:07:08.309Z,5.1
2023-04-03T19:09:56.045Z,5.1
2023-04-03T19:12:43.731Z,5
2023-04-03T19:15:31.789Z,5
2023-04-03T19:18:19.655Z,5
2023-04-03T19:21:07.279Z,5
2023-04-03T19:23:55.066Z,4.9
2023-04-03T19:26:42.789Z,4.8
2023-04-03T19:29:30.732Z,4.7
2023-04-03T19:32:18.656Z,4.7
2023-04-03T19:35:06.634Z,4.7
2023-04-03T19:37:54.437Z,4.6
2023-04-03T19:40:42.271Z,4.6
2023-04-03T19:43:30.111Z,4.5
2023-04-03T19:46:17.907Z,4.5
2023-04-03T19:49:06.015Z,4.5
2023-04-03T19:51:53.863Z,4.4
2023-04-03T19:54:41.596Z,4.4
2023-04-03T19:57:29.482Z,4.4
2023-04-03T20:00:17.314Z,4.3
2023-04-03T20:03:05.170Z,4.3
2023-04-03T20:05:53.265Z,4.2
2023-04-03T20:08:41.024Z,4.2
2023-04-03T20:11:28.861Z,4.1
2023-04-03T20:14:16.551Z,4.1
2023-04-03T20:17:04.317Z,4
2023-04-03T20:19:52.001Z,4
2023-04-03T20:22:39.888Z,3.9
2023-04-03T20:28:28.251Z,3.9
2023-04-03T20:31:16.018Z,3.8
2023-04-03T20:34:04.004Z,3.7
2023-04-03T20:36:52.019Z,3.7
2023-04-03T20:39:40.240Z,3.6
2023-04-03T20:42:28.502Z,3.6
2023-04-03T20:45:16.436Z,3.6
2023-04-03T20:48:04.469Z,3.5
2023-04-03T20:50:52.452Z,3.5
2023-04-03T20:53:40.347Z,3.5
2023-04-03T20:56:28.871Z,3.5
2023-04-03T20:59:16.705Z,3.5
2023-04-03T21:02:04.927Z,3.5
2023-04-03T21:04:52.970Z,3.4
2023-04-03T21:07:40.664Z,3.3
2023-04-03T21:10:28.525Z,3.3
2023-04-03T21:13:16.387Z,3.3
2023-04-03T21:16:04.301Z,3.2
2023-04-03T21:18:52.252Z,3.1
2023-04-03T21:21:39.918Z,3.1
2023-04-03T21:24:27.589Z,3
2023-04-03T21:27:15.340Z,3
2023-04-03T21:30:03.295Z,2.9
2023-04-03T21:32:51.125Z,2.8
2023-04-03T21:35:39.290Z,2.8
2023-04-03T21:38:27.030Z,2.8
2023-04-03T21:41:15.133Z,2.7
2023-04-03T21:44:02.872Z,2.7
2023-04-03T21:46:50.945Z,2.7
2023-04-03T21:49:39.036Z,2.7
2023-04-03T21:52:26.769Z,2.7
2023-04-03T21:55:14.452Z,2.6
2023-04-03T21:58:02.450Z,2.6
2023-04-03T22:00:50.332Z,2.5
2023-04-03T22:03:39.172Z,2.5
2023-04-03T22:06:27.061Z,2.5
2023-04-03T22:09:14.910Z,2.5
2023-04-03T22:12:02.739Z,2.4
2023-04-03T22:14:50.673Z,2.4
2023-04-03T22:17:38.568Z,2.4
2023-04-03T22:20:26.618Z,2.3
2023-04-03T22:23:14.397Z,2.3
2023-04-03T22:26:02.535Z,2.2
2023-04-03T22:28:50.556Z,2.1
2023-04-03T22:31:38.588Z,2.1
2023-04-03T22:34:26.890Z,2
2023-04-03T22:37:14.823Z,1.9
2023-04-03T22:40:02.766Z,1.8
2023-04-03T22:42:50.705Z,1.8
2023-04-03T22:45:38.580Z,1.7
2023-04-03T22:48:26.673Z,1.7
2023-04-03T22:51:14.565Z,1.6
2023-04-03T22:54:02.620Z,1.6
2023-04-03T22:56:53.661Z,1.6
2023-04-03T22:59:41.778Z,1.6
2023-04-03T23:02:29.696Z,1.6
2023-04-03T23:05:17.832Z,1.5
2023-04-03T23:08:05.710Z,1.5
2023-04-03T23:10:53.721Z,1.4
2023-04-03T23:13:41.687Z,1.4
2023-04-03T23:16:29.800Z,1.4
2023-04-03T23:19:18.016Z,1.3
2023-04-03T23:22:06.109Z,1.2
2023-04-03T23:24:54.098Z,1.2
2023-04-03T23:27:42.050Z,1.1
2023-04-03T23:30:30.024Z,1.1
2023-04-03T23:33:18.224Z,1
2023-04-03T23:36:06.230Z,1
2023-04-03T23:38:54.401Z,1
2023-04-03T23:41:43.786Z,0.9
2023-04-03T23:44:32.577Z,0.8
2023-04-03T23:47:20.636Z,0.8
2023-04-03T23:50:08.862Z,0.8
2023-04-03T23:52:56.948Z,0.7
2023-04-03T23:55:44.889Z,0.8
2023-04-03T23:58:32.676Z,0.8
